createdAt,value
2018-12-02T00:00:39.312Z,81.20
2018-12-02T00:01:38.533Z,80.88
2018-12-02T00:02:38.523Z,80.78
2018-12-02T00:03:38.647Z,80.78
2018-12-02T00:04:38.492Z,81.29
2018-12-02T00:05:38.480Z,80.78
2018-12-02T00:06:38.511Z,81.09
2018-12-02T00:07:38.454Z,81.20
2018-12-02T00:08:38.555Z,81.50
2018-12-02T00:09:38.434Z,81.40
2018-12-02T00:10:38.422Z,80.99
2018-12-02T00:11:38.460Z,80.99
2018-12-02T00:12:38.438Z,81.20
2018-12-02T00:13:38.410Z,81.09
2018-12-02T00:14:38.382Z,81.29
2018-12-02T00:15:38.390Z,81.29
2018-12-02T00:16:38.360Z,81.40
2018-12-02T00:17:38.377Z,81.60
2018-12-02T00:18:38.369Z,81.81
2018-12-02T00:19:38.323Z,81.71
2018-12-02T00:20:38.309Z,81.81
2018-12-02T00:21:38.328Z,81.81
2018-12-02T00:22:38.297Z,81.60
2018-12-02T00:23:38.309Z,82.42
2018-12-02T00:24:38.262Z,81.81
2018-12-02T00:25:38.263Z,81.60
2018-12-02T00:26:38.249Z,81.60
2018-12-02T00:27:38.237Z,81.81
2018-12-02T00:28:38.275Z,81.91
2018-12-02T00:29:38.217Z,81.60
2018-12-02T00:30:38.210Z,82.32
2018-12-02T00:31:38.196Z,81.91
2018-12-02T00:32:38.183Z,81.60
2018-12-02T00:33:38.169Z,82.49
2018-12-02T00:34:38.222Z,82.32
2018-12-02T00:35:38.147Z,82.01
2018-12-02T00:36:38.131Z,82.22
2018-12-02T00:37:38.312Z,82.53
2018-12-02T00:38:38.122Z,81.81
2018-12-02T00:39:38.113Z,82.28
2018-12-02T00:40:38.131Z,82.39
2018-12-02T00:41:38.243Z,82.08
2018-12-02T00:42:38.070Z,82.08
2018-12-02T00:43:38.057Z,82.08
2018-12-02T00:44:38.084Z,82.12
2018-12-02T00:45:38.042Z,82.12
2018-12-02T00:46:38.051Z,82.12
2018-12-02T00:47:38.025Z,81.98
2018-12-02T00:48:38.004Z,82.32
2018-12-02T00:49:38.006Z,82.32
2018-12-02T00:50:38.009Z,82.08
2018-12-02T00:51:37.975Z,82.08
2018-12-02T00:52:37.972Z,82.12
2018-12-02T00:53:37.949Z,82.32
2018-12-02T00:54:37.939Z,81.98
2018-12-02T00:55:37.946Z,82.12
2018-12-02T00:56:37.938Z,82.12
2018-12-02T00:57:37.908Z,82.18
2018-12-02T00:58:37.902Z,82.08
2018-12-02T00:59:37.880Z,82.01
2018-12-02T01:00:37.883Z,81.87
2018-12-02T01:01:37.871Z,82.18
2018-12-02T01:02:37.863Z,81.87
2018-12-02T01:03:37.846Z,81.87
2018-12-02T01:04:37.846Z,82.22
2018-12-02T01:05:37.843Z,82.08
2018-12-02T01:06:37.805Z,82.18
2018-12-02T01:07:37.840Z,81.87
2018-12-02T01:08:37.827Z,82.08
2018-12-02T01:09:37.844Z,82.08
2018-12-02T01:10:37.770Z,82.08
2018-12-02T01:11:37.755Z,82.18
2018-12-02T01:12:37.744Z,82.08
2018-12-02T01:13:37.762Z,82.18
2018-12-02T01:14:37.785Z,81.98
2018-12-02T01:15:37.707Z,82.08
2018-12-02T01:16:37.720Z,82.39
2018-12-02T01:17:37.892Z,81.98
2018-12-02T01:18:37.892Z,81.98
2018-12-02T01:19:37.678Z,82.08
2018-12-02T01:20:37.671Z,82.08
2018-12-02T01:21:37.642Z,82.08
2018-12-02T01:22:37.705Z,81.87
2018-12-02T01:23:39.249Z,81.87
2018-12-02T01:24:37.923Z,82.08
2018-12-02T01:25:37.611Z,81.87
2018-12-02T01:26:37.610Z,81.98
2018-12-02T01:27:37.617Z,81.98
2018-12-02T01:28:37.579Z,81.87
2018-12-02T01:29:37.604Z,81.98
2018-12-02T01:30:37.548Z,82.08
2018-12-02T01:31:37.561Z,82.18
2018-12-02T01:32:37.555Z,81.98
2018-12-02T01:33:37.512Z,81.98
2018-12-02T01:34:37.508Z,82.08
2018-12-02T01:35:37.521Z,82.39
2018-12-02T01:36:37.512Z,82.28
2018-12-02T01:37:37.473Z,82.08
2018-12-02T01:38:37.474Z,82.39
2018-12-02T01:39:37.451Z,82.39
2018-12-02T01:40:37.441Z,81.87
2018-12-02T01:41:37.530Z,82.90
2018-12-02T01:42:37.416Z,82.69
2018-12-02T01:43:37.406Z,82.79
2018-12-02T01:44:37.420Z,82.69
2018-12-02T01:45:37.413Z,82.39
2018-12-02T01:46:37.410Z,82.79
2018-12-02T01:47:37.364Z,82.69
2018-12-02T01:48:37.441Z,82.79
2018-12-02T01:49:37.354Z,82.39
2018-12-02T01:50:37.353Z,83.00
2018-12-02T01:51:37.314Z,83.00
2018-12-02T01:52:37.323Z,82.39
2018-12-02T01:53:37.309Z,82.28
2018-12-02T01:54:37.294Z,82.79
2018-12-02T01:55:37.319Z,83.00
2018-12-02T01:56:37.391Z,82.59
2018-12-02T01:57:37.253Z,82.49
2018-12-02T01:58:37.257Z,82.59
2018-12-02T01:59:37.235Z,82.39
2018-12-02T02:00:37.250Z,82.49
2018-12-02T02:01:37.213Z,82.39
2018-12-02T02:02:37.218Z,82.79
2018-12-02T02:03:37.220Z,82.39
2018-12-02T02:04:37.213Z,82.86
2018-12-02T02:05:37.172Z,82.59
2018-12-02T02:06:37.158Z,82.49
2018-12-02T02:07:37.177Z,82.28
2018-12-02T02:08:37.219Z,82.28
2018-12-02T02:09:37.118Z,82.39
2018-12-02T02:10:37.110Z,82.39
2018-12-02T02:11:37.128Z,82.14
2018-12-02T02:12:37.088Z,82.14
2018-12-02T02:13:37.120Z,82.24
2018-12-02T02:14:37.082Z,82.35
2018-12-02T02:15:37.057Z,82.24
2018-12-02T02:16:37.060Z,82.35
2018-12-02T02:17:37.030Z,82.49
2018-12-02T02:18:37.023Z,82.35
2018-12-02T02:19:37.054Z,82.14
2018-12-02T02:20:37.020Z,82.39
2018-12-02T02:21:37.006Z,82.90
2018-12-02T02:22:36.999Z,82.90
2018-12-02T02:23:36.960Z,82.69
2018-12-02T02:24:36.969Z,82.39
2018-12-02T02:25:36.950Z,82.69
2018-12-02T02:26:36.974Z,83.10
2018-12-02T02:27:36.969Z,83.10
2018-12-02T02:28:36.920Z,82.59
2018-12-02T02:29:36.902Z,83.20
2018-12-02T02:30:36.889Z,82.45
2018-12-02T02:31:36.879Z,83.27
2018-12-02T02:32:36.920Z,83.10
2018-12-02T02:33:36.881Z,82.86
2018-12-02T02:34:36.857Z,83.00
2018-12-02T02:35:36.830Z,83.00
2018-12-02T02:36:36.824Z,83.00
2018-12-02T02:37:36.819Z,83.00
2018-12-02T02:38:36.846Z,82.86
2018-12-02T02:39:36.794Z,82.76
2018-12-02T02:40:36.778Z,82.90
2018-12-02T02:41:36.768Z,82.90
2018-12-02T02:42:36.755Z,82.59
2018-12-02T02:43:36.762Z,82.90
2018-12-02T02:44:36.747Z,82.86
2018-12-02T02:45:36.729Z,83.10
2018-12-02T02:46:36.903Z,82.86
2018-12-02T02:47:36.720Z,83.00
2018-12-02T02:48:36.712Z,83.06
2018-12-02T02:49:36.736Z,82.79
2018-12-02T02:50:36.674Z,82.86
2018-12-02T02:51:36.662Z,82.79
2018-12-02T02:52:36.675Z,82.59
2018-12-02T02:53:36.657Z,82.86
2018-12-02T02:54:36.691Z,82.65
2018-12-02T02:55:36.619Z,82.86
2018-12-02T02:56:36.612Z,82.76
2018-12-02T02:57:36.607Z,82.65
2018-12-02T02:58:36.585Z,82.90
2018-12-02T02:59:36.590Z,82.90
2018-12-02T03:00:36.563Z,82.90
2018-12-02T03:01:36.670Z,82.90
2018-12-02T03:02:36.538Z,82.86
2018-12-02T03:03:36.527Z,82.79
2018-12-02T03:04:36.529Z,82.86
2018-12-02T03:05:36.502Z,82.86
2018-12-02T03:06:36.576Z,82.79
2018-12-02T03:07:36.495Z,83.00
2018-12-02T03:08:36.475Z,83.00
2018-12-02T03:09:36.499Z,82.86
2018-12-02T03:10:36.457Z,82.96
2018-12-02T03:11:36.439Z,83.06
2018-12-02T03:12:36.431Z,83.27
2018-12-02T03:13:36.439Z,83.27
2018-12-02T03:14:36.408Z,82.96
2018-12-02T03:15:36.415Z,83.06
2018-12-02T03:16:36.449Z,82.65
2018-12-02T03:17:36.382Z,82.76
2018-12-02T03:18:36.587Z,82.86
2018-12-02T03:19:36.381Z,82.65
2018-12-02T03:20:36.342Z,82.35
2018-12-02T03:21:36.336Z,82.55
2018-12-02T03:22:36.321Z,82.86
2018-12-02T03:23:36.316Z,82.35
2018-12-02T03:24:36.290Z,82.55
2018-12-02T03:25:36.302Z,82.76
2018-12-02T03:26:36.293Z,82.45
2018-12-02T03:27:36.270Z,82.65
2018-12-02T03:28:36.261Z,82.86
2018-12-02T03:29:36.247Z,82.96
2018-12-02T03:30:36.262Z,81.94
2018-12-02T03:31:36.267Z,82.04
2018-12-02T03:32:36.210Z,81.94
2018-12-02T03:33:36.199Z,82.04
2018-12-02T03:34:36.195Z,82.04
2018-12-02T03:35:36.196Z,82.10
2018-12-02T03:36:36.188Z,82.14
2018-12-02T03:37:36.151Z,81.94
2018-12-02T03:38:36.155Z,81.94
2018-12-02T03:39:36.136Z,81.84
2018-12-02T03:40:36.155Z,81.84
2018-12-02T03:41:36.128Z,81.94
2018-12-02T03:42:36.096Z,82.10
2018-12-02T03:43:36.091Z,81.94
2018-12-02T03:44:36.093Z,82.00
2018-12-02T03:45:36.109Z,81.94
2018-12-02T03:46:36.064Z,82.04
2018-12-02T03:47:36.054Z,82.14
2018-12-02T03:48:36.036Z,81.79
2018-12-02T03:49:36.034Z,82.00
2018-12-02T03:50:36.010Z,81.94
2018-12-02T03:51:36.070Z,81.94
2018-12-02T03:52:35.991Z,82.04
2018-12-02T03:53:36.028Z,82.04
2018-12-02T03:54:35.969Z,82.55
2018-12-02T03:55:35.970Z,82.55
2018-12-02T03:56:35.979Z,82.31
2018-12-02T03:57:35.960Z,82.31
2018-12-02T03:58:35.942Z,82.92
2018-12-02T03:59:35.916Z,83.06
2018-12-02T04:00:35.962Z,82.55
2018-12-02T04:01:35.886Z,83.03
2018-12-02T04:02:35.923Z,82.76
2018-12-02T04:03:35.930Z,82.92
2018-12-02T04:04:35.894Z,83.54
2018-12-02T04:05:35.845Z,83.88
2018-12-02T04:06:36.186Z,84.09
2018-12-02T04:07:35.833Z,84.50
2018-12-02T04:08:35.827Z,84.19
2018-12-02T04:09:35.811Z,84.09
2018-12-02T04:10:35.838Z,83.98
2018-12-02T04:11:35.777Z,84.19
2018-12-02T04:12:35.766Z,83.88
2018-12-02T04:13:35.827Z,83.58
2018-12-02T04:14:35.754Z,84.39
2018-12-02T04:15:35.734Z,84.70
2018-12-02T04:16:35.757Z,84.60
2018-12-02T04:17:35.769Z,83.98
2018-12-02T04:18:35.717Z,84.09
2018-12-02T04:19:35.701Z,84.09
2018-12-02T04:20:35.719Z,83.58
2018-12-02T04:21:35.694Z,85.22
2018-12-02T04:22:35.676Z,85.11
2018-12-02T04:23:35.649Z,86.24
2018-12-02T04:24:35.636Z,86.14
2018-12-02T04:25:35.641Z,86.24
2018-12-02T04:26:35.626Z,87.26
2018-12-02T04:27:35.655Z,87.20
2018-12-02T04:28:35.594Z,87.26
2018-12-02T04:29:35.580Z,88.02
2018-12-02T04:30:35.573Z,87.92
2018-12-02T04:31:35.573Z,87.82
2018-12-02T04:32:35.550Z,89.04
2018-12-02T04:33:35.603Z,88.98
2018-12-02T04:34:35.532Z,89.76
2018-12-02T04:35:35.516Z,89.90
2018-12-02T04:36:35.512Z,89.81
2018-12-02T04:37:35.493Z,90.22
2018-12-02T04:38:35.501Z,90.83
2018-12-02T04:39:35.495Z,90.32
2018-12-02T04:40:35.490Z,91.24
2018-12-02T04:41:35.473Z,91.65
2018-12-02T04:42:35.495Z,92.06
2018-12-02T04:43:35.468Z,92.41
2018-12-02T04:44:35.427Z,91.80
2018-12-02T04:45:35.490Z,92.72
2018-12-02T04:46:35.402Z,93.23
2018-12-02T04:47:35.385Z,93.23
2018-12-02T04:48:35.388Z,92.93
2018-12-02T04:49:35.384Z,93.02
2018-12-02T04:50:35.355Z,93.13
2018-12-02T04:51:35.344Z,93.02
2018-12-02T04:52:35.331Z,93.44
2018-12-02T04:53:35.331Z,94.15
2018-12-02T04:54:35.342Z,94.46
2018-12-02T04:55:35.295Z,94.36
2018-12-02T04:56:35.283Z,94.46
2018-12-02T04:57:35.279Z,94.67
2018-12-02T04:58:35.268Z,94.92
2018-12-02T04:59:35.288Z,94.81
2018-12-02T05:00:35.268Z,94.40
2018-12-02T05:01:35.242Z,94.51
2018-12-02T05:02:35.234Z,94.20
2018-12-02T05:03:35.231Z,94.20
2018-12-02T05:04:35.199Z,94.30
2018-12-02T05:05:35.227Z,94.51
2018-12-02T05:06:35.179Z,95.02
2018-12-02T05:07:35.219Z,95.32
2018-12-02T05:08:35.179Z,95.32
2018-12-02T05:09:35.174Z,95.23
2018-12-02T05:10:35.179Z,95.23
2018-12-02T05:11:35.218Z,95.43
2018-12-02T05:12:35.116Z,95.53
2018-12-02T05:13:35.161Z,95.02
2018-12-02T05:14:35.101Z,95.32
2018-12-02T05:15:35.089Z,95.23
2018-12-02T05:16:35.077Z,95.32
2018-12-02T05:17:35.173Z,95.12
2018-12-02T05:18:35.047Z,95.32
2018-12-02T05:19:35.059Z,95.32
2018-12-02T05:20:35.724Z,95.37
2018-12-02T05:21:35.060Z,95.64
2018-12-02T05:22:35.011Z,95.64
2018-12-02T05:23:34.990Z,95.74
2018-12-02T05:24:35.051Z,96.19
2018-12-02T05:25:34.970Z,96.66
2018-12-02T05:26:35.029Z,96.60
2018-12-02T05:27:34.950Z,96.81
2018-12-02T05:28:34.974Z,96.56
2018-12-02T05:29:35.427Z,96.56
2018-12-02T05:30:34.933Z,96.66
2018-12-02T05:31:34.907Z,96.50
2018-12-02T05:32:34.997Z,96.35
2018-12-02T05:33:34.882Z,96.25
2018-12-02T05:34:34.905Z,96.56
2018-12-02T05:35:34.861Z,96.66
2018-12-02T05:36:34.857Z,96.19
2018-12-02T05:37:35.046Z,96.56
2018-12-02T05:38:34.880Z,96.15
2018-12-02T05:39:34.823Z,96.66
2018-12-02T05:40:34.854Z,95.78
2018-12-02T05:41:34.851Z,96.30
2018-12-02T05:42:38.248Z,96.70
2018-12-02T05:43:34.777Z,95.78
2018-12-02T05:44:34.838Z,96.60
2018-12-02T05:45:34.767Z,96.35
2018-12-02T05:46:39.795Z,96.66
2018-12-02T05:47:34.750Z,96.25
2018-12-02T05:48:34.719Z,96.81
2018-12-02T05:49:34.710Z,96.66
2018-12-02T05:50:34.702Z,96.60
2018-12-02T05:51:34.703Z,96.70
2018-12-02T05:52:34.731Z,96.35
2018-12-02T05:53:34.752Z,96.35
2018-12-02T05:54:34.645Z,96.35
2018-12-02T05:55:34.712Z,96.77
2018-12-02T05:56:34.662Z,95.94
2018-12-02T05:57:34.675Z,95.64
2018-12-02T05:58:34.620Z,96.66
2018-12-02T05:59:34.622Z,96.04
2018-12-02T06:00:37.195Z,96.56
2018-12-02T06:01:34.623Z,96.56
2018-12-02T06:02:39.338Z,96.35
2018-12-02T06:03:35.573Z,96.56
2018-12-02T06:07:59.317Z,96.50
2018-12-02T06:08:58.822Z,96.45
2018-12-02T06:09:58.799Z,96.56
2018-12-02T06:12:23.776Z,96.56
2018-12-02T06:14:34.478Z,96.77
2018-12-02T06:15:34.085Z,96.04
2018-12-02T06:16:34.036Z,96.87
2018-12-02T06:17:34.200Z,96.45
2018-12-02T06:18:34.663Z,96.50
2018-12-02T06:19:33.983Z,96.77
2018-12-02T06:20:34.857Z,96.04
2018-12-02T06:21:33.863Z,96.25
2018-12-02T06:22:33.848Z,96.40
2018-12-02T06:23:33.837Z,96.40
2018-12-02T06:24:33.834Z,96.30
2018-12-02T06:25:33.824Z,96.15
2018-12-02T06:26:35.740Z,96.45
2018-12-02T06:27:33.794Z,96.70
2018-12-02T06:28:33.873Z,96.40
2018-12-02T06:29:33.785Z,96.30
2018-12-02T06:30:33.895Z,97.07
2018-12-02T06:32:50.946Z,96.81
2018-12-02T06:33:50.566Z,97.28
2018-12-02T06:34:50.758Z,97.07
2018-12-02T06:35:50.374Z,97.38
2018-12-02T06:36:50.390Z,97.32
2018-12-02T06:37:50.408Z,96.87
2018-12-02T06:38:50.334Z,97.07
2018-12-02T06:39:50.366Z,96.87
2018-12-02T06:40:50.316Z,96.87
2018-12-02T06:41:50.309Z,96.77
2018-12-02T06:42:50.329Z,96.81
2018-12-02T06:43:51.214Z,97.22
2018-12-02T06:44:50.271Z,97.02
2018-12-02T06:45:50.260Z,96.77
2018-12-02T06:46:50.291Z,97.02
2018-12-02T06:47:50.250Z,97.17
2018-12-02T06:48:50.248Z,96.97
2018-12-02T06:49:50.226Z,96.77
2018-12-02T06:50:50.694Z,96.91
2018-12-02T06:51:50.396Z,96.97
2018-12-02T06:52:50.267Z,97.17
2018-12-02T06:53:50.212Z,97.12
2018-12-02T06:54:50.163Z,96.87
2018-12-02T06:55:50.148Z,96.87
2018-12-02T06:56:50.208Z,97.17
2018-12-02T06:57:50.138Z,97.28
2018-12-02T06:58:50.129Z,97.17
2018-12-02T06:59:50.140Z,97.17
2018-12-02T07:00:50.115Z,97.17
2018-12-02T07:01:50.167Z,97.42
2018-12-02T07:02:50.681Z,97.02
2018-12-02T07:03:50.062Z,96.97
2018-12-02T07:04:50.100Z,96.87
2018-12-02T07:05:50.175Z,97.02
2018-12-02T07:06:50.067Z,97.22
2018-12-02T07:07:50.044Z,97.17
2018-12-02T07:08:50.095Z,97.38
2018-12-02T07:09:50.079Z,97.07
2018-12-02T07:10:49.989Z,97.17
2018-12-02T07:11:50.013Z,97.12
2018-12-02T07:12:49.988Z,96.77
2018-12-02T07:13:49.955Z,96.87
2018-12-02T07:14:50.013Z,97.17
2018-12-02T07:17:11.004Z,96.91
2018-12-02T07:19:22.288Z,97.38
2018-12-02T07:20:23.603Z,97.79
2018-12-02T07:21:21.571Z,97.58
2018-12-02T07:22:21.452Z,97.48
2018-12-02T07:23:21.405Z,97.17
2018-12-02T07:24:21.413Z,97.89
2018-12-02T07:25:21.358Z,97.69
2018-12-02T07:26:21.393Z,97.38
2018-12-02T07:27:21.334Z,97.58
2018-12-02T07:28:21.324Z,97.79
2018-12-02T07:29:21.384Z,97.58
2018-12-02T07:30:24.960Z,97.99
2018-12-02T07:31:21.282Z,98.10
2018-12-02T07:32:21.326Z,98.41
2018-12-02T07:33:21.270Z,98.41
2018-12-02T07:34:21.294Z,98.71
2018-12-02T07:35:21.238Z,98.71
2018-12-02T07:36:21.245Z,98.71
2018-12-02T07:37:21.225Z,98.55
2018-12-02T07:38:21.242Z,98.61
2018-12-02T07:39:21.524Z,98.71
2018-12-02T07:40:21.448Z,98.71
2018-12-02T07:41:21.173Z,98.30
2018-12-02T07:42:21.166Z,98.30
2018-12-02T07:43:21.174Z,98.71
2018-12-02T07:44:21.143Z,98.45
2018-12-02T07:45:21.196Z,98.82
2018-12-02T07:46:21.132Z,98.51
2018-12-02T07:47:21.204Z,98.51
2018-12-02T07:48:21.106Z,99.22
2018-12-02T07:49:21.088Z,98.51
2018-12-02T07:50:21.075Z,98.92
2018-12-02T07:51:21.096Z,99.12
2018-12-02T07:52:21.099Z,99.38
2018-12-02T07:53:21.058Z,99.12
2018-12-02T07:54:21.042Z,98.92
2018-12-02T07:55:21.016Z,98.71
2018-12-02T07:56:21.005Z,99.12
2018-12-02T07:57:21.061Z,99.12
2018-12-02T07:58:20.991Z,98.51
2018-12-02T07:59:20.983Z,99.33
2018-12-02T08:00:20.979Z,98.71
2018-12-02T08:01:21.030Z,98.51
2018-12-02T08:02:20.950Z,98.51
2018-12-02T08:03:20.957Z,98.61
2018-12-02T08:04:20.921Z,98.61
2018-12-02T08:05:20.915Z,98.46
2018-12-02T08:07:31.942Z,98.46
2018-12-02T08:08:30.767Z,98.67
2018-12-02T08:09:30.743Z,98.36
2018-12-02T08:10:30.625Z,98.67
2018-12-02T08:11:30.612Z,98.67
2018-12-02T08:12:30.586Z,98.77
2018-12-02T08:13:30.833Z,98.57
2018-12-02T08:14:30.590Z,98.57
2018-12-02T08:15:30.617Z,98.46
2018-12-02T08:16:30.579Z,98.77
2018-12-02T08:17:30.527Z,98.46
2018-12-02T08:18:30.524Z,98.87
2018-12-02T08:19:30.497Z,98.97
2018-12-02T08:20:30.476Z,98.87
2018-12-02T08:21:30.484Z,99.28
2018-12-02T08:22:30.462Z,98.87
2018-12-02T08:23:30.818Z,98.87
2018-12-02T08:24:30.501Z,98.87
2018-12-02T08:25:30.425Z,98.97
2018-12-02T08:26:30.408Z,99.28
2018-12-02T08:27:30.420Z,98.97
2018-12-02T08:28:30.407Z,99.08
2018-12-02T08:29:30.378Z,98.97
2018-12-02T08:30:30.380Z,98.87
2018-12-02T08:31:30.360Z,98.97
2018-12-02T08:32:30.366Z,99.38
2018-12-02T08:33:30.331Z,98.77
2018-12-02T08:34:30.323Z,99.08
2018-12-02T08:35:30.331Z,99.08
2018-12-02T08:36:30.298Z,98.67
2018-12-02T08:37:30.291Z,99.08
2018-12-02T08:38:30.297Z,99.08
2018-12-02T08:39:30.267Z,98.97
2018-12-02T08:40:30.258Z,98.87
2018-12-02T08:41:30.266Z,98.97
2018-12-02T08:42:30.314Z,98.97
2018-12-02T08:43:30.426Z,98.93
2018-12-02T08:44:30.220Z,99.34
2018-12-02T08:45:30.206Z,99.38
2018-12-02T08:46:30.216Z,98.83
2018-12-02T08:47:30.208Z,98.72
2018-12-02T08:48:30.195Z,98.83
2018-12-02T08:49:30.173Z,98.83
2018-12-02T08:50:30.150Z,98.83
2018-12-02T08:51:30.156Z,99.13
2018-12-02T08:52:30.187Z,99.34
2018-12-02T08:53:30.172Z,99.24
2018-12-02T08:54:30.109Z,98.93
2018-12-02T08:55:30.143Z,98.83
2018-12-02T08:56:30.099Z,98.67
2018-12-02T08:57:30.078Z,98.93
2018-12-02T08:58:30.065Z,98.11
2018-12-02T08:59:30.066Z,98.83
2018-12-02T09:00:30.042Z,98.52
2018-12-02T09:01:30.066Z,98.68
2018-12-02T09:02:30.023Z,98.52
2018-12-02T09:03:30.018Z,98.62
2018-12-02T09:04:29.996Z,98.42
2018-12-02T09:05:30.910Z,98.42
2018-12-02T09:06:29.985Z,99.13
2018-12-02T09:07:30.061Z,99.03
2018-12-02T09:08:29.975Z,98.00
2018-12-02T09:09:29.936Z,98.11
2018-12-02T09:10:29.929Z,98.93
2018-12-02T09:11:29.921Z,97.91
2018-12-02T09:12:29.914Z,99.24
2018-12-02T09:13:29.960Z,99.24
2018-12-02T09:14:29.928Z,98.00
2018-12-02T09:15:29.877Z,98.21
2018-12-02T09:16:29.858Z,98.58
2018-12-02T09:17:29.882Z,98.78
2018-12-02T09:18:29.845Z,98.47
2018-12-02T09:19:29.843Z,98.68
2018-12-02T09:20:29.881Z,98.37
2018-12-02T09:21:29.928Z,98.16
2018-12-02T09:22:29.799Z,98.37
2018-12-02T09:23:29.794Z,98.37
2018-12-02T09:24:29.820Z,98.47
2018-12-02T09:25:29.766Z,98.47
2018-12-02T09:26:29.770Z,98.37
2018-12-02T09:27:29.808Z,98.47
2018-12-02T09:28:29.730Z,98.37
2018-12-02T09:29:29.723Z,97.86
2018-12-02T09:30:29.814Z,97.96
2018-12-02T09:31:29.985Z,97.81
2018-12-02T09:32:29.698Z,97.91
2018-12-02T09:33:29.675Z,97.96
2018-12-02T09:34:29.766Z,98.22
2018-12-02T09:35:38.553Z,97.86
2018-12-02T09:36:29.918Z,97.81
2018-12-02T09:37:29.803Z,98.58
2018-12-02T09:38:29.673Z,98.37
2018-12-02T09:39:29.626Z,98.22
2018-12-02T09:40:29.656Z,98.63
2018-12-02T09:41:29.621Z,98.43
2018-12-02T09:42:29.584Z,98.33
2018-12-02T09:43:29.581Z,98.12
2018-12-02T09:44:30.751Z,98.53
2018-12-02T09:45:29.899Z,98.38
2018-12-02T09:46:29.755Z,98.43
2018-12-02T09:47:29.528Z,98.43
2018-12-02T09:48:29.718Z,98.33
2018-12-02T09:49:29.518Z,98.12
2018-12-02T09:50:29.538Z,98.33
2018-12-02T09:51:29.534Z,98.33
2018-12-02T09:52:29.469Z,98.28
2018-12-02T09:53:29.495Z,98.53
2018-12-02T09:54:29.443Z,98.33
2018-12-02T09:55:29.472Z,97.91
2018-12-02T09:56:29.439Z,98.74
2018-12-02T09:57:29.414Z,98.49
2018-12-02T09:58:29.542Z,99.15
2018-12-02T09:59:29.591Z,99.10
2018-12-02T10:00:34.048Z,98.94
2018-12-02T10:01:30.367Z,99.15
2018-12-02T10:02:29.370Z,99.20
2018-12-02T10:03:29.437Z,98.79
2018-12-02T10:04:29.342Z,99.10
2018-12-02T10:05:29.350Z,98.90
2018-12-02T10:06:29.351Z,98.90
2018-12-02T10:07:30.889Z,98.90
2018-12-02T10:08:29.310Z,98.90
2018-12-02T10:09:29.281Z,98.90
2018-12-02T10:10:29.272Z,98.99
2018-12-02T10:11:29.285Z,98.69
2018-12-02T10:12:29.677Z,99.10
2018-12-02T10:13:29.240Z,98.90
2018-12-02T10:14:29.227Z,99.20
2018-12-02T10:15:29.216Z,98.74
2018-12-02T10:16:29.230Z,98.90
2018-12-02T10:17:30.157Z,98.95
2018-12-02T10:18:29.176Z,98.95
2018-12-02T10:19:29.191Z,98.65
2018-12-02T10:20:29.156Z,99.05
2018-12-02T10:21:29.152Z,98.85
2018-12-02T10:22:29.262Z,98.85
2018-12-02T10:24:48.209Z,98.54
2018-12-02T10:25:47.746Z,99.15
2018-12-02T10:26:47.696Z,98.74
2018-12-02T10:27:47.744Z,98.65
2018-12-02T10:28:47.778Z,98.74
2018-12-02T10:29:47.647Z,98.65
2018-12-02T10:30:47.640Z,98.65
2018-12-02T10:31:47.627Z,98.65
2018-12-02T10:32:47.623Z,98.60
2018-12-02T10:33:47.635Z,98.74
2018-12-02T10:34:47.579Z,99.01
2018-12-02T10:35:47.577Z,98.70
2018-12-02T10:36:47.564Z,98.60
2018-12-02T10:37:47.715Z,98.49
2018-12-02T10:38:47.573Z,98.70
2018-12-02T10:39:47.545Z,98.70
2018-12-02T10:40:47.523Z,98.70
2018-12-02T10:41:47.836Z,98.60
2018-12-02T10:42:47.510Z,98.80
2018-12-02T10:43:47.488Z,99.11
2018-12-02T10:44:47.490Z,98.90
2018-12-02T10:45:47.475Z,98.90
2018-12-02T10:46:47.457Z,98.80
2018-12-02T10:47:47.453Z,98.90
2018-12-02T10:48:47.425Z,98.60
2018-12-02T10:49:47.425Z,98.60
2018-12-02T10:50:47.434Z,98.90
2018-12-02T10:51:47.391Z,98.90
2018-12-02T10:52:47.385Z,98.60
2018-12-02T10:53:47.462Z,98.65
2018-12-02T10:54:47.370Z,98.65
2018-12-02T10:55:47.390Z,98.86
2018-12-02T10:56:47.351Z,98.86
2018-12-02T10:57:47.326Z,98.55
2018-12-02T10:58:47.320Z,98.65
2018-12-02T10:59:47.316Z,98.75
2018-12-02T11:00:47.292Z,98.75
2018-12-02T11:01:47.365Z,99.16
2018-12-02T11:02:47.274Z,99.47
2018-12-02T11:03:47.274Z,99.37
2018-12-02T11:04:47.269Z,99.47
2018-12-02T11:05:47.245Z,99.06
2018-12-02T11:06:47.251Z,99.37
2018-12-02T11:07:47.225Z,99.37
2018-12-02T11:08:47.209Z,99.47
2018-12-02T11:09:47.215Z,98.96
2018-12-02T11:10:47.193Z,99.02
2018-12-02T11:11:47.195Z,99.37
2018-12-02T11:12:47.277Z,99.37
2018-12-02T11:13:47.158Z,99.37
2018-12-02T11:14:47.157Z,99.37
2018-12-02T11:15:47.156Z,99.37
2018-12-02T11:16:47.124Z,99.32
2018-12-02T11:17:47.103Z,99.37
2018-12-02T11:18:47.102Z,99.16
2018-12-02T11:19:47.109Z,99.32
2018-12-02T11:20:47.232Z,99.11
2018-12-02T11:21:47.075Z,99.16
2018-12-02T11:22:47.065Z,99.22
2018-12-02T11:23:48.026Z,99.16
2018-12-02T11:24:47.123Z,98.96
2018-12-02T11:25:47.052Z,98.91
2018-12-02T11:26:47.013Z,99.06
2018-12-02T11:27:47.014Z,99.02
2018-12-02T11:28:47.032Z,99.16
2018-12-02T11:29:47.029Z,99.32
2018-12-02T11:30:46.965Z,99.16
2018-12-02T11:31:46.988Z,99.32
2018-12-02T11:32:46.964Z,99.32
2018-12-02T11:33:46.964Z,99.47
2018-12-02T11:34:46.928Z,99.22
2018-12-02T11:35:46.917Z,99.16
2018-12-02T11:36:46.919Z,99.37
2018-12-02T11:37:46.954Z,99.73
2018-12-02T11:38:46.897Z,99.99
2018-12-02T11:39:46.899Z,99.63
2018-12-02T11:40:46.858Z,99.84
2018-12-02T11:41:46.879Z,99.89
2018-12-02T11:42:46.833Z,99.68
2018-12-02T11:43:46.836Z,99.93
2018-12-02T11:44:46.808Z,99.38
2018-12-02T11:45:46.831Z,99.38
2018-12-02T11:46:46.803Z,99.38
2018-12-02T11:47:46.779Z,99.58
2018-12-02T11:48:46.758Z,99.68
2018-12-02T11:49:46.771Z,99.79
2018-12-02T11:50:46.743Z,99.79
2018-12-02T11:51:46.769Z,99.99
2018-12-02T11:52:46.719Z,99.89
2018-12-02T11:53:46.710Z,99.99
2018-12-02T11:54:46.733Z,99.27
2018-12-02T11:55:46.728Z,99.23
2018-12-02T11:56:46.678Z,99.07
2018-12-02T11:57:46.662Z,99.02
2018-12-02T11:58:46.675Z,99.27
2018-12-02T11:59:46.641Z,99.33
2018-12-02T12:00:46.706Z,99.02
2018-12-02T12:01:46.659Z,99.02
2018-12-02T12:02:46.603Z,98.93
2018-12-02T12:03:46.607Z,99.13
2018-12-02T12:04:48.541Z,98.61
2018-12-02T12:05:46.572Z,98.72
2018-12-02T12:06:46.571Z,98.61
2018-12-02T12:07:46.611Z,99.23
2018-12-02T12:08:46.647Z,98.98
2018-12-02T12:09:46.528Z,98.52
2018-12-02T12:10:46.515Z,98.72
2018-12-02T12:11:46.577Z,98.47
2018-12-02T12:12:46.510Z,98.68
2018-12-02T12:13:46.487Z,98.72
2018-12-02T12:14:46.474Z,98.72
2018-12-02T12:15:46.468Z,98.68
2018-12-02T12:16:46.470Z,98.36
2018-12-02T12:17:46.442Z,98.68
2018-12-02T12:18:46.426Z,98.68
2018-12-02T12:19:46.416Z,98.36
2018-12-02T12:20:46.405Z,98.36
2018-12-02T12:21:46.418Z,98.36
2018-12-02T12:22:47.060Z,98.36
2018-12-02T12:23:46.383Z,98.57
2018-12-02T12:24:46.359Z,98.36
2018-12-02T12:25:46.350Z,98.27
2018-12-02T12:26:46.348Z,98.57
2018-12-02T12:27:46.322Z,98.77
2018-12-02T12:28:46.350Z,98.57
2018-12-02T12:29:46.302Z,98.88
2018-12-02T12:30:46.353Z,98.57
2018-12-02T12:31:46.294Z,98.88
2018-12-02T12:32:46.275Z,99.18
2018-12-02T12:33:46.302Z,99.59
2018-12-02T12:34:46.264Z,99.29
2018-12-02T12:35:46.271Z,99.08
2018-12-02T12:36:46.286Z,98.98
2018-12-02T12:37:46.232Z,98.98
2018-12-02T12:38:46.209Z,99.08
2018-12-02T12:39:46.213Z,98.73
2018-12-02T12:40:46.186Z,99.08
2018-12-02T12:41:46.171Z,99.08
2018-12-02T12:42:46.164Z,98.93
2018-12-02T12:43:47.301Z,99.18
2018-12-02T12:44:46.194Z,99.18
2018-12-02T12:45:46.134Z,99.14
2018-12-02T12:46:46.115Z,99.08
2018-12-02T12:47:46.129Z,98.73
2018-12-02T12:48:46.095Z,99.24
2018-12-02T12:49:46.078Z,99.14
2018-12-02T12:50:46.117Z,99.44
2018-12-02T12:51:46.068Z,99.44
2018-12-02T12:52:46.045Z,99.65
2018-12-02T12:53:46.054Z,99.85
2018-12-02T12:54:46.029Z,99.65
2018-12-02T12:55:50.868Z,99.60
2018-12-02T12:56:47.006Z,99.54
2018-12-02T12:57:45.999Z,99.50
2018-12-02T12:58:45.981Z,99.34
2018-12-02T12:59:45.968Z,99.40
2018-12-02T13:00:46.026Z,99.70
2018-12-02T13:01:45.952Z,99.70
2018-12-02T13:02:45.967Z,99.66
2018-12-02T13:03:45.925Z,99.50
2018-12-02T13:04:45.976Z,99.50